createdAt,value
2019-01-25T00:00:11.453Z,-3.00
2019-01-25T00:02:16.023Z,-3.00
2019-01-25T00:04:20.146Z,-3.00
2019-01-25T00:06:23.921Z,-3.00
2019-01-25T00:08:27.876Z,-2.90
2019-01-25T00:10:32.198Z,-2.90
2019-01-25T00:12:36.075Z,-2.90
2019-01-25T00:14:41.111Z,-2.90
2019-01-25T00:17:04.224Z,-3.00
2019-01-25T00:19:08.740Z,-3.00
2019-01-25T00:21:12.842Z,-2.90
2019-01-25T00:23:17.080Z,-2.90
2019-01-25T00:25:20.962Z,-2.90
2019-01-25T00:27:24.786Z,-2.90
2019-01-25T00:29:28.623Z,-2.90
2019-01-25T00:31:32.868Z,-2.90
2019-01-25T00:33:36.971Z,-2.90
2019-01-25T00:35:41.306Z,-2.90
2019-01-25T00:37:45.341Z,-2.80
2019-01-25T00:39:49.300Z,-2.80
2019-01-25T00:41:53.187Z,-2.80
2019-01-25T00:43:57.032Z,-2.80
2019-01-25T00:46:00.896Z,-2.90
2019-01-25T00:48:05.419Z,-3.00
2019-01-25T00:50:13.336Z,-3.00
2019-01-25T00:52:17.288Z,-3.00
2019-01-25T00:54:21.559Z,-3.10
2019-01-25T00:56:25.460Z,-3.10
2019-01-25T00:58:29.548Z,-3.00
2019-01-25T01:00:33.893Z,-3.00
2019-01-25T01:02:38.206Z,-3.00
2019-01-25T01:04:42.523Z,-3.00
2019-01-25T01:06:46.720Z,-3.00
2019-01-25T01:09:10.666Z,-2.90
2019-01-25T01:11:15.012Z,-2.90
2019-01-25T01:13:19.123Z,-3.00
2019-01-25T01:15:23.040Z,-2.90
2019-01-25T01:17:27.331Z,-2.90
2019-01-25T01:19:31.213Z,-2.90
2019-01-25T01:21:35.172Z,-2.90
2019-01-25T01:23:39.623Z,-2.90
2019-01-25T01:25:43.595Z,-3.00
2019-01-25T01:27:47.867Z,-3.00
2019-01-25T01:29:51.859Z,-3.00
2019-01-25T01:31:56.040Z,-3.00
2019-01-25T01:33:59.911Z,-3.00
2019-01-25T01:36:04.594Z,-2.90
2019-01-25T01:38:08.947Z,-2.80
2019-01-25T01:40:22.010Z,-2.70
2019-01-25T01:42:26.247Z,-2.80
2019-01-25T01:44:30.185Z,-2.80
2019-01-25T01:46:53.247Z,-2.80
2019-01-25T01:48:57.184Z,-2.80
2019-01-25T01:51:00.979Z,-2.80
2019-01-25T01:53:05.175Z,-2.90
2019-01-25T01:55:10.068Z,-2.90
2019-01-25T01:57:14.295Z,-2.90
2019-01-25T01:59:18.394Z,-2.80
2019-01-25T02:01:22.495Z,-2.80
2019-01-25T02:03:26.677Z,-2.80
2019-01-25T02:05:30.817Z,-2.70
2019-01-25T02:07:34.897Z,-2.70
2019-01-25T02:09:58.300Z,-2.70
2019-01-25T02:12:02.342Z,-2.70
2019-01-25T02:14:06.298Z,-2.70
2019-01-25T02:16:10.244Z,-2.70
2019-01-25T02:18:33.524Z,-2.70
2019-01-25T02:20:37.471Z,-2.70
2019-01-25T02:22:41.326Z,-2.80
2019-01-25T02:24:45.131Z,-2.80
2019-01-25T02:26:48.943Z,-2.70
2019-01-25T02:28:53.131Z,-2.70
2019-01-25T02:30:57.437Z,-2.70
2019-01-25T02:33:01.560Z,-2.70
2019-01-25T02:35:05.835Z,-2.60
2019-01-25T02:37:09.795Z,-2.60
2019-01-25T02:39:13.693Z,-2.60
2019-01-25T02:41:17.683Z,-2.70
2019-01-25T02:43:21.615Z,-2.70
2019-01-25T02:45:26.018Z,-2.70
2019-01-25T02:47:30.172Z,-2.70
2019-01-25T02:49:34.154Z,-2.70
2019-01-25T02:51:37.971Z,-2.70
2019-01-25T02:53:41.916Z,-2.70
2019-01-25T02:55:46.182Z,-2.60
2019-01-25T02:57:50.181Z,-2.60
2019-01-25T02:59:54.589Z,-2.60
2019-01-25T03:01:58.815Z,-2.60
2019-01-25T03:04:03.137Z,-2.70
2019-01-25T03:06:07.170Z,-2.70
2019-01-25T03:08:11.048Z,-2.70
2019-01-25T03:10:15.919Z,-2.60
2019-01-25T03:12:19.787Z,-2.60
2019-01-25T03:14:24.166Z,-2.70
2019-01-25T03:16:28.359Z,-2.70
2019-01-25T03:18:32.493Z,-2.70
2019-01-25T03:20:36.445Z,-2.70
2019-01-25T03:22:40.523Z,-2.70
2019-01-25T03:24:44.424Z,-2.70
2019-01-25T03:26:48.400Z,-2.70
2019-01-25T03:28:52.239Z,-2.70
2019-01-25T03:30:56.711Z,-2.70
2019-01-25T03:33:00.701Z,-2.70
2019-01-25T03:35:06.494Z,-2.60
2019-01-25T03:37:10.559Z,-2.60
2019-01-25T03:39:14.613Z,-2.60
2019-01-25T03:41:18.488Z,-2.60
2019-01-25T03:43:22.334Z,-2.60
2019-01-25T03:45:28.120Z,-2.60
2019-01-25T03:47:32.337Z,-2.60
2019-01-25T03:49:36.391Z,-2.50
2019-01-25T03:51:40.231Z,-2.50
2019-01-25T03:53:44.169Z,-2.50
2019-01-25T03:55:48.119Z,-2.50
2019-01-25T03:57:52.111Z,-2.50
2019-01-25T03:59:56.760Z,-2.50
2019-01-25T04:02:00.983Z,-2.50
2019-01-25T04:04:05.354Z,-2.40
2019-01-25T04:06:09.327Z,-2.50
2019-01-25T04:08:13.311Z,-2.50
2019-01-25T04:10:19.324Z,-2.50
2019-01-25T04:12:23.600Z,-2.50
2019-01-25T04:14:27.909Z,-2.40
2019-01-25T04:16:31.967Z,-2.50
2019-01-25T04:18:36.025Z,-2.40
2019-01-25T04:20:39.888Z,-2.40
2019-01-25T04:22:44.076Z,-2.50
2019-01-25T04:24:48.444Z,-2.50
2019-01-25T04:26:52.559Z,-2.50
2019-01-25T04:28:58.519Z,-2.50
2019-01-25T04:31:02.708Z,-2.50
2019-01-25T04:33:07.400Z,-2.40
2019-01-25T04:35:11.376Z,-2.40
2019-01-25T04:37:15.148Z,-2.40
2019-01-25T04:39:19.027Z,-2.40
2019-01-25T04:41:23.162Z,-2.40
2019-01-25T04:43:27.790Z,-2.40
2019-01-25T04:45:32.173Z,-2.40
2019-01-25T04:47:36.137Z,-2.40
2019-01-25T04:49:39.971Z,-2.40
2019-01-25T04:51:43.810Z,-2.50
2019-01-25T04:53:47.698Z,-2.40
2019-01-25T04:55:51.531Z,-2.40
2019-01-25T04:57:59.097Z,-2.40
2019-01-25T05:00:03.872Z,-2.40
2019-01-25T05:02:07.750Z,-2.40
2019-01-25T05:04:11.632Z,-2.40
2019-01-25T05:06:17.623Z,-2.40
2019-01-25T05:08:22.073Z,-2.40
2019-01-25T05:10:26.549Z,-2.40
2019-01-25T05:12:30.876Z,-2.50
2019-01-25T05:14:35.534Z,-2.50
2019-01-25T05:16:39.325Z,-2.50
2019-01-25T05:18:43.870Z,-2.50
2019-01-25T05:20:47.912Z,-2.40
2019-01-25T05:22:56.682Z,-2.40
2019-01-25T05:25:01.093Z,-2.50
2019-01-25T05:27:05.399Z,-2.50
2019-01-25T05:29:09.199Z,-2.40
2019-01-25T05:31:13.198Z,-2.40
2019-01-25T05:33:17.090Z,-2.40
2019-01-25T05:35:20.950Z,-2.40
2019-01-25T05:37:25.610Z,-2.40
2019-01-25T05:39:29.574Z,-2.30
2019-01-25T05:41:33.643Z,-2.30
2019-01-25T05:43:42.311Z,-2.30
2019-01-25T05:45:46.583Z,-2.30
2019-01-25T05:47:51.388Z,-2.40
2019-01-25T05:49:55.556Z,-2.40
2019-01-25T05:51:59.635Z,-2.40
2019-01-25T05:54:03.773Z,-2.40
2019-01-25T05:56:07.872Z,-2.40
2019-01-25T05:58:11.940Z,-2.40
2019-01-25T06:00:19.631Z,-2.40
2019-01-25T06:02:23.407Z,-2.40
2019-01-25T06:04:34.126Z,-2.40
2019-01-25T06:06:38.224Z,-2.40
2019-01-25T06:08:44.100Z,-2.40
2019-01-25T06:10:47.677Z,-2.30
2019-01-25T06:12:54.071Z,-2.30
2019-01-25T06:14:58.915Z,-2.30
2019-01-25T06:17:03.032Z,-2.30
2019-01-25T06:19:07.191Z,-2.30
2019-01-25T06:21:11.380Z,-2.30
2019-01-25T06:23:15.196Z,-2.30
2019-01-25T06:25:19.529Z,-2.30
2019-01-25T06:27:23.368Z,-2.20
2019-01-25T06:29:31.879Z,-2.20
2019-01-25T06:31:36.134Z,-2.20
2019-01-25T06:33:40.067Z,-2.20
2019-01-25T06:35:43.954Z,-2.30
2019-01-25T06:37:47.795Z,-2.20
2019-01-25T06:39:51.585Z,-2.20
2019-01-25T06:41:55.807Z,-2.20
2019-01-25T06:44:00.063Z,-2.20
2019-01-25T06:46:04.534Z,-2.20
2019-01-25T06:48:08.885Z,-2.20
2019-01-25T06:50:14.331Z,-2.20
2019-01-25T06:52:18.170Z,-2.20
2019-01-25T06:54:21.977Z,-2.20
2019-01-25T06:56:26.610Z,-2.20
2019-01-25T06:58:40.800Z,-2.20
2019-01-25T07:00:51.181Z,-2.20
2019-01-25T07:02:55.347Z,-2.20
2019-01-25T07:04:59.770Z,-2.20
2019-01-25T07:07:05.898Z,-2.20
2019-01-25T07:09:11.998Z,-2.20
2019-01-25T07:11:15.872Z,-2.10
2019-01-25T07:13:19.678Z,-2.10
2019-01-25T07:15:24.090Z,-2.10
2019-01-25T07:17:28.793Z,-2.10
2019-01-25T07:19:32.951Z,-2.10
2019-01-25T07:21:37.207Z,-2.10
2019-01-25T07:23:41.150Z,-2.20
2019-01-25T07:25:45.667Z,-2.20
2019-01-25T07:27:49.833Z,-2.20
2019-01-25T07:29:53.726Z,-2.20
2019-01-25T07:31:58.303Z,-2.10
2019-01-25T07:34:02.497Z,-2.10
2019-01-25T07:36:06.785Z,-2.10
2019-01-25T07:38:10.868Z,-2.00
2019-01-25T07:40:14.825Z,-2.00
2019-01-25T07:42:18.610Z,-2.00
2019-01-25T07:44:22.554Z,-1.90
2019-01-25T07:46:27.494Z,-1.90
2019-01-25T07:48:31.688Z,-1.90
2019-01-25T07:50:35.563Z,-1.90
2019-01-25T07:52:39.543Z,-1.90
2019-01-25T07:54:43.345Z,-1.90
2019-01-25T07:56:47.171Z,-1.90
2019-01-25T07:58:50.969Z,-1.90
2019-01-25T08:00:54.830Z,-1.90
2019-01-25T08:02:59.716Z,-2.00
2019-01-25T08:05:04.172Z,-1.90
2019-01-25T08:07:08.470Z,-1.90
2019-01-25T08:09:12.406Z,-1.90
2019-01-25T08:11:16.319Z,-1.90
2019-01-25T08:13:20.136Z,-1.90
2019-01-25T08:15:24.143Z,-1.90
2019-01-25T08:17:28.920Z,-1.90
2019-01-25T08:19:32.976Z,-1.80
2019-01-25T08:21:37.093Z,-1.80
2019-01-25T08:23:40.973Z,-1.80
2019-01-25T08:25:44.975Z,-1.70
2019-01-25T08:27:49.415Z,-1.60
2019-01-25T08:29:53.374Z,-1.60
2019-01-25T08:31:58.579Z,-1.60
2019-01-25T08:34:02.920Z,-1.60
2019-01-25T08:36:07.240Z,-1.60
2019-01-25T08:38:11.181Z,-1.70
2019-01-25T08:40:15.413Z,-1.70
2019-01-25T08:42:19.397Z,-1.70
2019-01-25T08:44:23.321Z,-1.70
2019-01-25T08:46:28.110Z,-1.60
2019-01-25T08:48:32.538Z,-1.60
2019-01-25T08:50:36.721Z,-1.60
2019-01-25T08:52:40.671Z,-1.50
2019-01-25T08:54:44.518Z,-1.50
2019-01-25T08:56:48.547Z,-1.50
2019-01-25T08:58:52.500Z,-1.40
2019-01-25T09:00:56.820Z,-1.40
2019-01-25T09:03:01.467Z,-1.40
2019-01-25T09:05:07.315Z,-1.40
2019-01-25T09:07:11.193Z,-1.40
2019-01-25T09:09:15.127Z,-1.30
2019-01-25T09:11:19.088Z,-1.30
2019-01-25T09:13:23.054Z,-1.20
2019-01-25T09:15:29.046Z,-1.20
2019-01-25T09:17:33.412Z,-1.20
2019-01-25T09:19:37.439Z,-1.20
2019-01-25T09:21:41.295Z,-1.10
2019-01-25T09:23:45.316Z,-1.10
2019-01-25T09:25:49.285Z,-0.90
2019-01-25T09:27:53.738Z,-0.90
2019-01-25T09:29:58.595Z,-0.90
2019-01-25T09:32:02.767Z,-1.00
2019-01-25T09:34:06.730Z,-1.10
2019-01-25T09:36:10.678Z,-1.00
2019-01-25T09:38:14.606Z,-1.00
2019-01-25T09:40:22.155Z,-0.90
2019-01-25T09:42:31.050Z,-0.90
2019-01-25T09:44:32.111Z,-1.00
2019-01-25T09:46:36.048Z,-0.90
2019-01-25T09:48:39.940Z,-0.80
2019-01-25T09:50:43.749Z,-0.70
2019-01-25T09:52:47.738Z,-0.60
2019-01-25T09:54:51.597Z,-0.60
2019-01-25T09:56:55.507Z,-0.50
2019-01-25T09:59:01.074Z,-0.50
2019-01-25T10:01:08.559Z,-0.50
2019-01-25T10:03:12.371Z,-0.50
2019-01-25T10:05:16.274Z,-0.50
2019-01-25T10:07:20.179Z,-0.50
2019-01-25T10:09:24.033Z,-0.50
2019-01-25T10:11:28.797Z,-0.60
2019-01-25T10:13:33.042Z,-0.70
2019-01-25T10:15:37.183Z,-0.60
2019-01-25T10:17:40.956Z,-0.50
2019-01-25T10:19:44.842Z,-0.30
2019-01-25T10:21:48.735Z,-0.20
2019-01-25T10:23:52.694Z,-0.10
2019-01-25T10:25:57.120Z,0.00
2019-01-25T10:28:01.897Z,0.10
2019-01-25T10:30:08.318Z,0.10
2019-01-25T10:32:12.251Z,0.10
2019-01-25T10:34:16.399Z,0.30
2019-01-25T10:36:20.435Z,0.30
2019-01-25T10:38:24.194Z,0.40
2019-01-25T10:40:29.378Z,0.40
2019-01-25T10:42:33.452Z,0.50
2019-01-25T10:44:37.493Z,0.50
2019-01-25T10:46:41.405Z,0.60
2019-01-25T10:48:45.238Z,0.70
2019-01-25T10:50:49.215Z,0.80
2019-01-25T10:52:53.464Z,0.80
2019-01-25T10:54:57.490Z,0.90
2019-01-25T10:57:20.631Z,0.80
2019-01-25T10:59:24.567Z,0.80
2019-01-25T11:01:28.952Z,0.60
2019-01-25T11:03:33.262Z,0.60
2019-01-25T11:05:37.409Z,0.40
2019-01-25T11:07:41.412Z,0.30
2019-01-25T11:09:45.220Z,0.20
2019-01-25T11:11:49.338Z,0.20
2019-01-25T11:13:53.140Z,0.40
2019-01-25T11:15:57.133Z,0.30
2019-01-25T11:18:01.855Z,0.40
2019-01-25T11:20:09.159Z,0.40
2019-01-25T11:22:13.022Z,0.40
2019-01-25T11:24:16.881Z,0.40
2019-01-25T11:26:20.880Z,0.40
2019-01-25T11:28:24.722Z,0.30
2019-01-25T11:30:29.716Z,0.40
2019-01-25T11:32:33.707Z,0.40
2019-01-25T11:34:38.037Z,0.50
2019-01-25T11:36:41.821Z,0.50
2019-01-25T11:38:45.665Z,0.60
2019-01-25T11:40:49.656Z,0.60
2019-01-25T11:42:53.834Z,0.60
2019-01-25T11:44:58.950Z,0.60
2019-01-25T11:47:03.154Z,0.50
2019-01-25T11:49:07.107Z,0.50
2019-01-25T11:51:31.605Z,0.60
2019-01-25T11:53:35.676Z,0.80
2019-01-25T11:55:39.705Z,0.90
2019-01-25T11:57:43.630Z,1.20
2019-01-25T11:59:47.733Z,1.20
2019-01-25T12:01:51.546Z,1.30
2019-01-25T12:03:55.349Z,1.30
2019-01-25T12:05:59.958Z,1.30
2019-01-25T12:08:04.712Z,1.30
2019-01-25T12:10:10.255Z,1.30
2019-01-25T12:12:14.115Z,1.30
2019-01-25T12:14:17.931Z,1.30
2019-01-25T12:16:21.737Z,1.40
2019-01-25T12:18:25.641Z,1.50
2019-01-25T12:20:30.738Z,1.70
2019-01-25T12:22:35.046Z,1.70
2019-01-25T12:24:38.950Z,1.80
2019-01-25T12:26:42.750Z,1.80
2019-01-25T12:28:46.615Z,1.70
2019-01-25T12:30:50.487Z,1.70
2019-01-25T12:32:54.913Z,1.70
2019-01-25T12:35:01.601Z,1.60
2019-01-25T12:37:05.714Z,1.70
2019-01-25T12:39:10.484Z,1.80
2019-01-25T12:41:14.422Z,1.90
2019-01-25T12:43:24.009Z,2.10
2019-01-25T12:45:25.523Z,2.20
2019-01-25T12:47:29.958Z,2.40
2019-01-25T12:49:34.035Z,2.50
2019-01-25T12:51:49.343Z,2.70
2019-01-25T12:53:53.288Z,3.50
2019-01-25T12:55:57.051Z,3.80
2019-01-25T12:58:01.486Z,3.80
2019-01-25T13:00:09.343Z,3.50
2019-01-25T13:02:13.224Z,3.50
2019-01-25T13:04:17.082Z,3.50
2019-01-25T13:06:21.007Z,3.50
2019-01-25T13:08:24.880Z,3.40
2019-01-25T13:10:29.575Z,3.20
2019-01-25T13:12:33.887Z,3.40
2019-01-25T13:14:37.824Z,3.60
2019-01-25T13:16:41.767Z,3.50
2019-01-25T13:18:45.602Z,3.40
2019-01-25T13:20:49.613Z,3.10
2019-01-25T13:22:53.613Z,3.00
2019-01-25T13:24:57.699Z,3.10
2019-01-25T13:27:02.422Z,3.00
2019-01-25T13:29:06.902Z,3.10
2019-01-25T13:31:11.224Z,3.20
2019-01-25T13:33:15.195Z,3.00
2019-01-25T13:35:19.523Z,3.10
2019-01-25T13:37:23.520Z,3.50
2019-01-25T13:39:27.380Z,4.00
2019-01-25T13:41:32.299Z,4.10
2019-01-25T13:43:39.180Z,4.20
2019-01-25T13:45:42.118Z,4.20
2019-01-25T13:47:46.397Z,4.30
2019-01-25T13:49:50.281Z,4.20
2019-01-25T13:51:54.114Z,3.70
2019-01-25T13:53:58.037Z,3.40
2019-01-25T13:56:02.935Z,3.20
2019-01-25T13:58:06.827Z,2.90
2019-01-25T14:00:19.800Z,3.00
2019-01-25T14:02:23.651Z,2.70
2019-01-25T14:04:27.497Z,2.70
2019-01-25T14:06:32.901Z,2.40
2019-01-25T14:08:36.792Z,2.30
2019-01-25T14:10:40.804Z,2.10
2019-01-25T14:12:44.661Z,1.80
2019-01-25T14:14:49.062Z,1.80
2019-01-25T14:16:52.911Z,1.90
2019-01-25T14:18:57.209Z,1.90
2019-01-25T14:21:01.948Z,2.10
2019-01-25T14:23:06.177Z,2.20
2019-01-25T14:25:10.945Z,2.10
2019-01-25T14:27:14.728Z,1.90
2019-01-25T14:29:18.621Z,1.70
2019-01-25T14:31:22.429Z,1.60
2019-01-25T14:33:26.285Z,1.40
2019-01-25T14:35:32.070Z,1.30
2019-01-25T14:37:36.508Z,1.20
2019-01-25T14:39:40.312Z,1.10
2019-01-25T14:41:44.274Z,1.30
2019-01-25T14:43:54.423Z,1.40
2019-01-25T14:45:53.884Z,1.30
2019-01-25T14:47:57.784Z,1.30
2019-01-25T14:50:02.247Z,1.10
2019-01-25T14:52:06.522Z,1.10
2019-01-25T14:54:10.663Z,1.00
2019-01-25T14:56:14.528Z,0.90
2019-01-25T14:58:18.398Z,0.90
2019-01-25T15:00:22.391Z,0.80
2019-01-25T15:02:26.247Z,0.80
2019-01-25T15:04:31.668Z,0.70
2019-01-25T15:06:35.748Z,0.70
2019-01-25T15:08:39.871Z,0.70
2019-01-25T15:10:43.727Z,0.70
2019-01-25T15:12:47.884Z,0.70
2019-01-25T15:14:51.797Z,0.70
2019-01-25T15:16:55.635Z,0.70
2019-01-25T15:18:59.640Z,0.70
2019-01-25T15:21:04.270Z,0.60
2019-01-25T15:23:08.498Z,0.60
2019-01-25T15:25:12.866Z,0.50
2019-01-25T15:27:17.283Z,0.60
2019-01-25T15:29:21.047Z,0.60
2019-01-25T15:31:24.998Z,0.60
2019-01-25T15:33:28.887Z,0.60
2019-01-25T15:35:34.594Z,0.50
2019-01-25T15:37:38.634Z,0.60
2019-01-25T15:39:42.608Z,0.50
2019-01-25T15:41:46.575Z,0.50
2019-01-25T15:43:50.379Z,0.50
2019-01-25T15:45:54.441Z,0.60
2019-01-25T15:47:58.318Z,0.50
2019-01-25T15:50:03.628Z,0.50
2019-01-25T15:52:07.902Z,0.50
2019-01-25T15:54:12.123Z,0.50
2019-01-25T15:56:16.023Z,0.50
2019-01-25T15:58:20.141Z,0.40
2019-01-25T16:00:25.426Z,0.40
2019-01-25T16:02:29.351Z,0.40
2019-01-25T16:04:35.260Z,0.40
2019-01-25T16:06:39.362Z,0.40
2019-01-25T16:08:43.274Z,0.40
2019-01-25T16:10:47.319Z,0.40
2019-01-25T16:12:51.565Z,0.40
2019-01-25T16:14:55.383Z,0.50
2019-01-25T16:16:59.610Z,0.50
2019-01-25T16:19:04.271Z,0.50
2019-01-25T16:21:08.430Z,0.50
2019-01-25T16:23:12.397Z,0.40
2019-01-25T16:25:21.614Z,0.50
2019-01-25T16:27:25.362Z,0.40
2019-01-25T16:29:29.288Z,0.50
2019-01-25T16:31:34.430Z,0.40
2019-01-25T16:33:38.578Z,0.40
2019-01-25T16:35:42.542Z,0.50
2019-01-25T16:37:46.632Z,0.50
2019-01-25T16:39:50.421Z,0.50
2019-01-25T16:41:54.757Z,0.50
2019-01-25T16:43:58.645Z,0.50
2019-01-25T16:46:03.792Z,0.50
2019-01-25T16:48:08.164Z,0.50
2019-01-25T16:50:12.514Z,0.40
2019-01-25T16:52:16.436Z,0.40
2019-01-25T16:54:20.571Z,0.40
2019-01-25T16:56:24.492Z,0.50
2019-01-25T16:58:28.473Z,0.50
2019-01-25T17:00:35.763Z,0.40
2019-01-25T17:02:58.868Z,0.50
2019-01-25T17:05:03.711Z,0.60
2019-01-25T17:07:07.973Z,0.60
2019-01-25T17:09:11.963Z,0.60
2019-01-25T17:11:15.853Z,0.60
2019-01-25T17:13:19.706Z,0.60
2019-01-25T17:15:23.694Z,0.70
2019-01-25T17:17:27.607Z,0.60
2019-01-25T17:19:32.367Z,0.70
2019-01-25T17:21:36.422Z,0.60
2019-01-25T17:23:40.560Z,0.60
2019-01-25T17:25:44.529Z,0.60
2019-01-25T17:27:48.483Z,0.60
2019-01-25T17:29:52.311Z,0.60
2019-01-25T17:31:56.290Z,0.60
2019-01-25T17:34:00.108Z,0.50
2019-01-25T17:36:05.051Z,0.50
2019-01-25T17:38:09.917Z,0.60
2019-01-25T17:40:15.390Z,0.70
2019-01-25T17:42:19.224Z,0.70
2019-01-25T17:44:23.684Z,0.60
2019-01-25T17:46:27.570Z,0.70
2019-01-25T17:48:31.819Z,0.60
2019-01-25T17:50:36.120Z,0.60
2019-01-25T17:52:40.259Z,0.70
2019-01-25T17:54:44.171Z,0.60
2019-01-25T17:56:48.055Z,0.60
2019-01-25T17:58:51.993Z,0.60
2019-01-25T18:00:56.632Z,0.70
2019-01-25T18:03:00.472Z,0.60
2019-01-25T18:05:05.588Z,0.60
2019-01-25T18:07:09.547Z,0.60
2019-01-25T18:09:13.683Z,0.60
2019-01-25T18:11:17.530Z,0.60
2019-01-25T18:13:21.402Z,0.60
2019-01-25T18:15:25.350Z,0.60
2019-01-25T18:17:29.219Z,0.70
2019-01-25T18:19:33.605Z,0.60
2019-01-25T18:21:37.623Z,0.50
2019-01-25T18:23:41.545Z,0.50
2019-01-25T18:26:06.963Z,0.40
2019-01-25T18:28:13.760Z,0.40
2019-01-25T18:30:25.350Z,0.30
2019-01-25T18:32:29.304Z,0.30
2019-01-25T18:34:33.840Z,0.20
2019-01-25T18:36:38.173Z,0.20
2019-01-25T18:38:42.090Z,0.20
2019-01-25T18:40:46.122Z,0.20
2019-01-25T18:42:50.118Z,0.10
2019-01-25T18:44:56.940Z,0.10
2019-01-25T18:47:00.018Z,0.10
2019-01-25T18:49:23.175Z,0.00
2019-01-25T18:51:27.012Z,0.00
2019-01-25T18:53:30.983Z,0.00
2019-01-25T18:55:35.647Z,0.00
2019-01-25T18:57:39.871Z,0.00
2019-01-25T18:59:44.030Z,0.00
2019-01-25T19:01:48.203Z,0.00
2019-01-25T19:03:52.072Z,0.00
2019-01-25T19:05:56.041Z,0.00
2019-01-25T19:08:19.211Z,-0.10
2019-01-25T19:10:24.486Z,-0.10
2019-01-25T19:12:28.382Z,-0.10
2019-01-25T19:14:32.304Z,-0.10
2019-01-25T19:16:36.518Z,-0.10
2019-01-25T19:18:40.770Z,0.00
2019-01-25T19:20:44.887Z,0.00
2019-01-25T19:22:48.823Z,0.10
2019-01-25T19:24:53.095Z,0.10
2019-01-25T19:26:56.968Z,0.10
2019-01-25T19:29:00.776Z,0.10
2019-01-25T19:31:05.567Z,0.10
2019-01-25T19:33:09.967Z,0.10
2019-01-25T19:35:14.419Z,0.10
2019-01-25T19:37:18.333Z,0.10
2019-01-25T19:39:22.207Z,0.10
2019-01-25T19:41:26.074Z,0.20
2019-01-25T19:43:30.088Z,0.20
2019-01-25T19:45:34.688Z,0.20
2019-01-25T19:47:39.305Z,0.20
2019-01-25T19:49:43.298Z,0.20
2019-01-25T19:51:47.127Z,0.20
2019-01-25T19:53:51.134Z,0.30
2019-01-25T19:55:55.014Z,0.30
2019-01-25T19:57:59.195Z,0.20
2019-01-25T20:00:03.962Z,0.20
2019-01-25T20:02:08.542Z,0.20
2019-01-25T20:04:13.010Z,0.30
2019-01-25T20:06:17.022Z,0.30
2019-01-25T20:08:20.841Z,0.30
2019-01-25T20:10:24.878Z,0.30
2019-01-25T20:12:28.666Z,0.30
2019-01-25T20:14:32.715Z,0.30
2019-01-25T20:16:37.580Z,0.30
2019-01-25T20:18:41.856Z,0.30
2019-01-25T20:20:46.154Z,0.30
2019-01-25T20:22:50.071Z,0.30
2019-01-25T20:24:53.858Z,0.30
2019-01-25T20:26:57.889Z,0.30
2019-01-25T20:29:01.709Z,0.30
2019-01-25T20:31:07.383Z,0.30
2019-01-25T20:33:11.427Z,0.30
2019-01-25T20:35:17.411Z,0.30
2019-01-25T20:37:21.238Z,0.30
2019-01-25T20:39:25.124Z,0.30
2019-01-25T20:41:29.037Z,0.40
2019-01-25T20:43:33.226Z,0.40
2019-01-25T20:45:38.684Z,0.30
2019-01-25T20:47:42.835Z,0.40
2019-01-25T20:49:48.312Z,0.40
2019-01-25T20:51:52.499Z,0.50
2019-01-25T20:53:56.364Z,0.40
2019-01-25T20:56:00.210Z,0.40
2019-01-25T20:58:04.550Z,0.40
2019-01-25T21:00:12.643Z,0.30
2019-01-25T21:02:16.850Z,0.30
2019-01-25T21:04:20.732Z,0.30
2019-01-25T21:06:24.645Z,0.30
2019-01-25T21:08:28.514Z,0.30
2019-01-25T21:10:32.556Z,0.40
2019-01-25T21:12:38.044Z,0.40
2019-01-25T21:14:47.869Z,0.40
2019-01-25T21:16:51.774Z,0.40
2019-01-25T21:18:55.571Z,0.40
2019-01-25T21:20:59.499Z,0.40
2019-01-25T21:23:03.870Z,0.40
2019-01-25T21:25:08.987Z,0.40
2019-01-25T21:27:13.085Z,0.40
2019-01-25T21:29:17.412Z,0.40
2019-01-25T21:31:21.355Z,0.40
2019-01-25T21:33:26.713Z,0.40
2019-01-25T21:35:30.965Z,0.40
2019-01-25T21:37:35.205Z,0.40
2019-01-25T21:39:39.767Z,0.30
2019-01-25T21:41:43.861Z,0.40
2019-01-25T21:43:47.768Z,0.30
2019-01-25T21:45:51.838Z,0.30
2019-01-25T21:47:56.495Z,0.30
2019-01-25T21:50:00.401Z,0.30
2019-01-25T21:52:06.003Z,0.40
2019-01-25T21:54:10.322Z,0.40
2019-01-25T21:56:14.325Z,0.40
2019-01-25T21:58:18.268Z,0.40
2019-01-25T22:00:24.671Z,0.40
2019-01-25T22:02:28.869Z,0.30
2019-01-25T22:04:32.786Z,0.40
2019-01-25T22:06:37.334Z,0.40
2019-01-25T22:08:42.487Z,0.40
2019-01-25T22:10:48.634Z,0.30
2019-01-25T22:12:52.614Z,0.30
2019-01-25T22:14:57.001Z,0.40
2019-01-25T22:17:00.939Z,0.40
2019-01-25T22:19:05.539Z,0.40
2019-01-25T22:21:10.013Z,0.40
2019-01-25T22:23:14.062Z,0.40
2019-01-25T22:25:18.232Z,0.40
2019-01-25T22:27:21.985Z,0.40
2019-01-25T22:29:25.781Z,0.40
2019-01-25T22:31:29.826Z,0.40
2019-01-25T22:33:33.778Z,0.40
2019-01-25T22:35:38.504Z,0.50
2019-01-25T22:37:42.934Z,0.40
2019-01-25T22:39:47.130Z,0.50
2019-01-25T22:41:50.954Z,0.40
2019-01-25T22:43:54.755Z,0.40
2019-01-25T22:45:59.086Z,0.40
2019-01-25T22:48:03.599Z,0.40
2019-01-25T22:50:11.038Z,0.40
2019-01-25T22:52:15.858Z,0.40
2019-01-25T22:54:20.127Z,0.40
2019-01-25T22:56:24.082Z,0.40
2019-01-25T22:58:28.075Z,0.50
2019-01-25T23:00:54.054Z,0.50
2019-01-25T23:02:57.984Z,0.50
2019-01-25T23:05:10.588Z,0.50
2019-01-25T23:07:17.557Z,0.40
2019-01-25T23:09:48.110Z,0.40
2019-01-25T23:11:52.207Z,0.50
2019-01-25T23:13:56.029Z,0.50
2019-01-25T23:16:06.335Z,0.50
2019-01-25T23:18:06.030Z,0.50
2019-01-25T23:22:15.426Z,0.50
2019-01-25T23:24:19.296Z,0.50
2019-01-25T23:26:23.165Z,0.50
2019-01-25T23:28:27.432Z,0.50
2019-01-25T23:30:31.315Z,0.50
2019-01-25T23:32:35.428Z,0.50
2019-01-25T23:34:39.996Z,0.50
2019-01-25T23:36:44.051Z,0.50
2019-01-25T23:38:47.990Z,0.50
2019-01-25T23:40:51.918Z,0.60
2019-01-25T23:42:55.774Z,0.60
2019-01-25T23:44:59.622Z,0.60
2019-01-25T23:47:03.836Z,0.60
2019-01-25T23:49:08.284Z,0.60
2019-01-25T23:51:31.506Z,0.60
2019-01-25T23:53:35.496Z,0.60
2019-01-25T23:55:40.399Z,0.60
2019-01-25T23:57:44.555Z,0.60
2019-01-25T23:59:48.466Z,0.60
